createdAt,value
2022-11-30T00:00:22.479Z,21.85
2022-11-30T00:05:44.420Z,23.88
2022-11-30T00:11:11.325Z,22.40
2022-11-30T00:16:33.164Z,22.88
2022-11-30T00:21:54.997Z,24.17
2022-11-30T00:27:16.828Z,21.50
2022-11-30T00:32:38.599Z,24.45
2022-11-30T00:38:02.246Z,24.17
2022-11-30T00:43:24.078Z,24.35
2022-11-30T00:48:45.946Z,25.70
2022-11-30T00:54:07.732Z,22.77
2022-11-30T00:59:29.504Z,22.95
2022-11-30T01:04:51.312Z,21.77
2022-11-30T01:10:13.117Z,20.13
2022-11-30T01:15:40.697Z,23.45
2022-11-30T01:21:06.051Z,25.63
2022-11-30T01:26:27.827Z,21.35
2022-11-30T01:31:49.594Z,24.83
2022-11-30T01:37:11.399Z,23.40
2022-11-30T01:42:33.474Z,23.38
2022-11-30T01:47:57.289Z,22.88
2022-11-30T01:53:19.317Z,25.92
2022-11-30T01:58:41.121Z,26.55
2022-11-30T02:04:09.838Z,26.92
2022-11-30T02:09:39.760Z,27.63
2022-11-30T02:15:09.425Z,27.33
2022-11-30T02:20:47.726Z,30.65
2022-11-30T02:26:24.786Z,24.77
2022-11-30T02:32:14.228Z,27.38
2022-11-30T02:37:38.526Z,26.70
2022-11-30T02:43:03.346Z,27.65
2022-11-30T02:54:04.583Z,26.30
2022-11-30T02:59:26.758Z,22.80
2022-11-30T03:04:48.819Z,25.45
2022-11-30T03:10:11.009Z,20.05
2022-11-30T03:15:32.907Z,27.88
2022-11-30T03:20:54.771Z,27.20
2022-11-30T03:26:16.546Z,26.75
2022-11-30T03:31:38.339Z,24.92
2022-11-30T03:37:00.146Z,26.15
2022-11-30T03:42:21.901Z,27.38
2022-11-30T03:47:43.695Z,26.55
2022-11-30T03:53:05.488Z,28.08
2022-11-30T03:58:28.429Z,29.25
2022-11-30T04:03:51.649Z,28.38
2022-11-30T04:09:13.580Z,26.60
2022-11-30T04:14:35.428Z,25.75
2022-11-30T04:19:57.234Z,26.13
2022-11-30T04:25:19.056Z,25.80
2022-11-30T04:30:41.307Z,24.50
2022-11-30T04:36:05.787Z,25.45
2022-11-30T04:41:27.582Z,22.17
2022-11-30T04:46:49.398Z,26.38
2022-11-30T04:52:11.232Z,25.13
2022-11-30T04:57:33.034Z,25.88
2022-11-30T05:02:56.389Z,24.92
2022-11-30T05:08:18.173Z,23.40
2022-11-30T05:13:39.954Z,24.20
2022-11-30T05:19:01.810Z,23.80
2022-11-30T05:24:23.571Z,22.70
2022-11-30T05:29:45.508Z,21.75
2022-11-30T05:35:07.634Z,26.92
2022-11-30T05:40:29.462Z,28.02
2022-11-30T05:45:51.230Z,23.20
2022-11-30T05:51:16.078Z,25.58
2022-11-30T05:56:37.924Z,22.52
2022-11-30T06:01:59.829Z,24.10
2022-11-30T06:07:21.705Z,24.38
2022-11-30T06:12:43.542Z,25.42
2022-11-30T06:18:06.394Z,24.88
2022-11-30T06:23:28.571Z,24.77
2022-11-30T06:28:50.433Z,27.02
2022-11-30T06:34:12.206Z,27.30
2022-11-30T06:40:04.210Z,27.33
2022-11-30T06:45:15.828Z,26.65
2022-11-30T06:50:37.686Z,23.25
2022-11-30T06:55:59.494Z,26.35
2022-11-30T07:01:21.277Z,27.65
2022-11-30T07:06:43.138Z,25.50
2022-11-30T07:12:05.352Z,26.48
2022-11-30T07:17:27.217Z,27.23
2022-11-30T07:22:48.988Z,30.88
2022-11-30T07:28:10.781Z,27.92
2022-11-30T07:33:32.569Z,27.05
2022-11-30T07:38:54.492Z,25.40
2022-11-30T07:44:16.317Z,25.70
2022-11-30T07:49:38.109Z,25.80
2022-11-30T07:54:59.925Z,20.90
2022-11-30T08:00:21.704Z,25.30
2022-11-30T08:05:43.490Z,27.60
2022-11-30T08:11:07.104Z,31.20
2022-11-30T08:16:30.356Z,24.70
2022-11-30T08:21:52.222Z,26.23
2022-11-30T08:27:14.006Z,25.77
2022-11-30T08:32:35.926Z,26.73
2022-11-30T08:37:57.766Z,21.90
2022-11-30T08:43:19.610Z,20.60
2022-11-30T08:48:41.444Z,23.90
2022-11-30T08:54:03.486Z,21.20
2022-11-30T08:59:25.399Z,16.10
2022-11-30T09:04:48.353Z,20.13
2022-11-30T09:10:10.938Z,16.73
2022-11-30T09:15:32.849Z,20.42
2022-11-30T09:21:01.475Z,22.48
2022-11-30T09:26:23.611Z,19.02
2022-11-30T09:31:45.520Z,18.75
2022-11-30T09:37:07.363Z,19.88
2022-11-30T09:42:32.036Z,16.42
2022-11-30T09:48:02.582Z,21.42
2022-11-30T09:53:57.915Z,20.92
2022-11-30T09:59:22.669Z,16.40
2022-11-30T10:04:45.553Z,18.25
2022-11-30T10:10:37.198Z,19.00
2022-11-30T10:16:18.015Z,21.73
2022-11-30T10:21:58.827Z,18.58
2022-11-30T10:27:53.483Z,19.27
2022-11-30T10:33:23.644Z,17.60
2022-11-30T10:38:50.371Z,19.38
2022-11-30T10:44:17.570Z,19.23
2022-11-30T10:49:45.419Z,18.48
2022-11-30T10:55:15.364Z,21.08
2022-11-30T11:00:37.186Z,20.00
2022-11-30T11:06:06.880Z,17.25
2022-11-30T11:11:32.669Z,18.52
2022-11-30T11:17:25.758Z,18.30
2022-11-30T11:22:47.783Z,15.73
2022-11-30T11:28:16.048Z,17.92
2022-11-30T11:33:50.910Z,18.23
2022-11-30T11:39:25.994Z,19.30
2022-11-30T11:44:53.372Z,19.65
2022-11-30T11:50:57.718Z,19.20
2022-11-30T11:56:14.122Z,16.27
2022-11-30T12:02:13.230Z,17.33
2022-11-30T12:07:58.162Z,17.75
2022-11-30T12:13:22.810Z,17.23
2022-11-30T12:18:56.818Z,18.75
2022-11-30T12:24:34.939Z,17.55
2022-11-30T12:29:56.672Z,18.52
2022-11-30T12:35:41.538Z,19.23
2022-11-30T12:41:19.215Z,23.58
2022-11-30T12:47:24.435Z,19.27
2022-11-30T12:53:12.424Z,16.97
2022-11-30T12:59:01.173Z,18.70
2022-11-30T13:04:45.261Z,20.80
2022-11-30T13:10:22.649Z,18.23
2022-11-30T13:15:45.962Z,22.70
2022-11-30T13:21:33.255Z,18.73
2022-11-30T13:27:00.433Z,17.75
2022-11-30T13:32:56.205Z,19.00
2022-11-30T13:38:35.885Z,20.73
2022-11-30T13:43:55.836Z,18.27
2022-11-30T13:49:20.266Z,19.38
2022-11-30T13:54:43.819Z,17.17
2022-11-30T14:00:45.708Z,19.17
2022-11-30T14:06:55.628Z,19.58
2022-11-30T14:12:32.711Z,18.42
2022-11-30T14:17:57.368Z,18.92
2022-11-30T14:23:22.247Z,16.70
2022-11-30T14:29:02.567Z,19.75
2022-11-30T14:34:36.473Z,21.15
2022-11-30T14:40:03.949Z,17.92
2022-11-30T14:45:27.053Z,20.00
2022-11-30T14:50:55.652Z,18.50
2022-11-30T14:56:43.960Z,15.27
2022-11-30T15:02:17.882Z,16.52
2022-11-30T15:07:42.131Z,16.88
2022-11-30T15:13:05.066Z,19.23
2022-11-30T15:18:26.855Z,18.55
2022-11-30T15:23:51.493Z,16.98
2022-11-30T15:29:20.404Z,19.33
2022-11-30T15:34:53.509Z,25.20
2022-11-30T15:40:33.493Z,17.38
2022-11-30T15:45:58.313Z,19.90
2022-11-30T15:51:26.641Z,20.70
2022-11-30T15:56:57.335Z,19.73
2022-11-30T16:02:36.365Z,22.23
2022-11-30T16:07:59.416Z,18.20
2022-11-30T16:13:22.635Z,21.05
2022-11-30T16:18:44.405Z,18.98
2022-11-30T16:24:06.524Z,15.70
2022-11-30T16:29:28.322Z,15.65
2022-11-30T16:34:50.142Z,19.00
2022-11-30T16:40:12.766Z,15.45
2022-11-30T16:45:36.821Z,14.50
2022-11-30T16:50:58.778Z,13.73
2022-11-30T16:56:20.714Z,14.23
2022-11-30T17:01:46.936Z,12.82
2022-11-30T17:07:09.277Z,9.18
2022-11-30T17:12:31.193Z,9.85
2022-11-30T17:17:53.006Z,8.85
2022-11-30T17:23:14.922Z,11.50
2022-11-30T17:28:36.731Z,11.88
2022-11-30T17:33:58.617Z,11.32
2022-11-30T17:39:20.447Z,10.57
2022-11-30T17:44:42.470Z,9.90
2022-11-30T17:50:05.358Z,7.88
2022-11-30T17:55:27.158Z,12.02
2022-11-30T18:00:50.739Z,9.20
2022-11-30T18:06:13.434Z,8.55
2022-11-30T18:11:35.308Z,10.50
2022-11-30T18:16:57.150Z,11.85
2022-11-30T18:22:19.484Z,11.38
2022-11-30T18:27:41.522Z,9.27
2022-11-30T18:33:03.360Z,12.32
2022-11-30T18:38:25.790Z,14.27
2022-11-30T18:43:47.648Z,13.80
2022-11-30T18:49:09.623Z,12.60
2022-11-30T18:54:31.428Z,13.88
2022-11-30T18:59:54.057Z,12.82
2022-11-30T19:05:16.587Z,13.40
2022-11-30T19:10:39.904Z,13.73
2022-11-30T19:16:05.728Z,14.23
2022-11-30T19:21:27.834Z,14.70
2022-11-30T19:26:49.697Z,13.95
2022-11-30T19:32:11.556Z,15.15
2022-11-30T19:37:33.477Z,16.30
2022-11-30T19:42:55.729Z,16.70
2022-11-30T19:48:17.510Z,16.92
2022-11-30T19:53:41.817Z,22.95
2022-11-30T19:59:05.689Z,19.70
2022-11-30T20:04:27.984Z,19.17
2022-11-30T20:09:49.989Z,20.90
2022-11-30T20:15:12.336Z,22.90
2022-11-30T20:20:34.379Z,20.65
2022-11-30T20:26:05.407Z,22.15
2022-11-30T20:31:28.970Z,18.38
2022-11-30T20:36:51.444Z,21.08
2022-11-30T20:42:13.753Z,15.70
2022-11-30T20:47:35.648Z,13.75
2022-11-30T20:52:57.427Z,13.35
2022-11-30T20:58:19.252Z,11.98
2022-11-30T21:03:41.782Z,18.58
2022-11-30T21:09:04.339Z,13.57
2022-11-30T21:14:26.329Z,13.30
2022-11-30T21:19:48.170Z,13.57
2022-11-30T21:25:10.012Z,14.25
2022-11-30T21:30:31.828Z,13.15
2022-11-30T21:35:53.658Z,12.85
2022-11-30T21:41:15.503Z,13.90
2022-11-30T21:46:37.604Z,15.50
2022-11-30T21:51:59.441Z,12.88
2022-11-30T21:57:21.700Z,14.45
2022-11-30T22:02:43.494Z,15.27
2022-11-30T22:08:05.407Z,14.98
2022-11-30T22:13:27.837Z,17.15
2022-11-30T22:18:53.848Z,16.33
2022-11-30T22:24:15.725Z,15.43
2022-11-30T22:29:37.612Z,15.02
2022-11-30T22:34:59.415Z,14.45
2022-11-30T22:40:21.200Z,14.15
2022-11-30T22:45:43.003Z,18.77
2022-11-30T22:51:10.184Z,16.67
2022-11-30T22:56:36.917Z,17.50
2022-11-30T23:01:58.814Z,15.38
2022-11-30T23:07:20.686Z,14.60
2022-11-30T23:12:59.058Z,14.93
2022-11-30T23:18:21.822Z,16.65
2022-11-30T23:23:44.502Z,13.50
2022-11-30T23:29:10.058Z,16.58
2022-11-30T23:34:31.864Z,17.30
2022-11-30T23:39:53.662Z,18.45
2022-11-30T23:45:15.461Z,15.77
2022-11-30T23:50:37.250Z,18.00
2022-11-30T23:56:04.225Z,16.17
